Capitol, MT

11:35 PM MST on March 05, 2015 (GMT -0700)
Hulett | Change Station
CLOSE
Current Station
Airport
Location: Hulett,
Elevation: 4265 ft
Nearby Weather Stations

Elev 4265 ft 44.66 °N, 104.57 °W | Updated 20 minutes ago

Clear
Clear
34 °F
Feels Like 25 °F
N
13
Wind Variable Wind from SSW

Today
High -- | Low -- °F
--% Chance of Precip.
Yesterday
High -- | Low -- °F
Precip. -- in
6:28 AM 5:49 PM
Full, 100% visible
Pressure 30.13 in
Visibility 10.0 miles
Clouds Scattered Clouds 11000 ft
Windchill 25 °F
Dew Point 19 °F
Humidity 56%
Rainfall 0.00 in
Snow Depth Not available.
UV 0 out of 12
Pollen 1.10 out of 12
Air Quality Not available.
Flu Activity Not available.
METAR KW43 060615Z AUTO 21011KT 10SM SCT110 01/M07 A3013 RMK AO2

More Conditions Fewer Conditions

Pressure 30.13 in
Visibility 10.0 miles
Clouds Scattered Clouds 11000 ft
Windchill 25 °F
Dew Point 19 °F
Humidity 56%
Rainfall 0.00 in
Snow Depth Not available.
UV 0 out of 12
Pollen 1.10 out of 12
Air Quality Not available.
Flu Activity Not available.
METAR KW43 060615Z AUTO 21011KT 10SM SCT110 01/M07 A3013 RMK AO2

More Conditions Fewer Conditions

10-Day Weather Forecast

Almanac

Astronomy

Mar. 05, 2015 Rise Set
Actual Time
Civil Twilight
Nautical Twilight
Astronomical Twilight
Moon
Length of Visible Light
Length of Day
Tomorrow will be .
, % of the Moon is Illuminated

Today's Extremes

State Highs State Lows

Community

WunderPhotos

Upload Photos

1,803,195 photos uploaded!

WunderBlogs® & News

Nearby

Air Quality

  Air Quality AQ Index Pollutant
Not available.

Snow Depth

Station Depth Elevation

Earthquake Activity

City Distance Mag. Time & Date
Minimum magnitude displayed is 2.5.

Coastal Water Temperatures

Place Temperature

Nearby Weather Stations